createdAt,value
2022-11-24T00:00:39.898Z,-1.65
2022-11-24T00:03:27.356Z,-1.60
2022-11-24T00:06:03.898Z,-1.61
2022-11-24T00:08:34.734Z,-1.61
2022-11-24T00:11:09.729Z,-1.63
2022-11-24T00:13:40.851Z,-1.64
2022-11-24T00:16:13.586Z,-1.62
2022-11-24T00:18:46.217Z,-1.64
2022-11-24T00:21:21.721Z,-1.67
2022-11-24T00:23:53.437Z,-1.66
2022-11-24T00:26:25.756Z,-1.64
2022-11-24T00:28:58.355Z,-1.58
2022-11-24T00:31:30.759Z,-1.68
2022-11-24T00:34:02.656Z,-1.65
2022-11-24T00:36:36.789Z,-1.68
2022-11-24T00:39:08.795Z,-1.69
2022-11-24T00:41:39.479Z,-1.66
2022-11-24T00:44:10.176Z,-1.68
2022-11-24T00:46:40.974Z,-1.66
2022-11-24T00:49:12.140Z,-1.66
2022-11-24T00:51:43.976Z,-1.67
2022-11-24T00:54:14.667Z,-1.65
2022-11-24T00:56:44.810Z,-1.67
2022-11-24T00:59:15.375Z,-1.72
2022-11-24T01:01:45.619Z,-1.76
2022-11-24T01:04:16.669Z,-1.73
2022-11-24T01:06:48.389Z,-1.80
2022-11-24T01:09:18.996Z,-1.77
2022-11-24T01:12:04.530Z,-1.83
2022-11-24T01:14:35.666Z,-1.83
2022-11-24T01:17:06.376Z,-1.82
2022-11-24T01:19:37.086Z,-1.83
2022-11-24T01:22:08.868Z,-1.81
2022-11-24T01:24:39.616Z,-1.84
2022-11-24T01:27:10.425Z,-1.82
2022-11-24T01:29:41.222Z,-1.81
2022-11-24T01:32:11.540Z,-1.81
2022-11-24T01:34:42.257Z,-1.81
2022-11-24T01:37:13.859Z,-1.84
2022-11-24T01:39:44.657Z,-1.84
2022-11-24T01:42:15.125Z,-1.89
2022-11-24T01:44:45.987Z,-1.93
2022-11-24T01:47:34.907Z,-1.95
2022-11-24T01:50:07.641Z,-1.98
2022-11-24T01:52:45.078Z,-1.91
2022-11-24T01:55:20.108Z,-1.95
2022-11-24T01:57:53.497Z,-1.95
2022-11-24T02:00:24.437Z,-1.92
2022-11-24T02:02:55.594Z,-1.97
2022-11-24T02:05:32.295Z,-1.92
2022-11-24T02:08:05.496Z,-1.91
2022-11-24T02:10:36.886Z,-1.91
2022-11-24T02:13:07.358Z,-1.92
2022-11-24T02:15:39.169Z,-1.89
2022-11-24T02:18:09.752Z,-1.95
2022-11-24T02:20:40.449Z,-1.93
2022-11-24T02:23:19.711Z,-1.93
2022-11-24T02:26:00.891Z,-1.93
2022-11-24T02:28:33.271Z,-1.98
2022-11-24T02:31:04.627Z,-1.98
2022-11-24T02:33:36.280Z,-1.99
2022-11-24T02:36:07.332Z,-2.00
2022-11-24T02:38:38.972Z,-1.94
2022-11-24T02:41:13.392Z,-1.97
2022-11-24T02:43:49.012Z,-1.98
2022-11-24T02:46:19.659Z,-1.99
2022-11-24T02:48:49.882Z,-1.98
2022-11-24T02:51:20.606Z,-2.04
2022-11-24T02:53:50.840Z,-2.00
2022-11-24T02:56:21.551Z,-2.04
2022-11-24T02:58:53.332Z,-1.99
2022-11-24T03:01:23.794Z,-2.02
2022-11-24T03:03:53.872Z,-2.08
2022-11-24T03:06:24.637Z,-2.04
2022-11-24T03:08:54.743Z,-2.05
2022-11-24T03:11:25.122Z,-2.03
2022-11-24T03:13:57.362Z,-2.06
2022-11-24T03:16:27.907Z,-2.04
2022-11-24T03:18:58.002Z,-2.06
2022-11-24T03:21:28.603Z,-2.07
2022-11-24T03:23:58.973Z,-2.06
2022-11-24T03:26:31.991Z,-2.05
2022-11-24T03:29:04.643Z,-2.04
2022-11-24T03:31:35.643Z,-2.02
2022-11-24T03:34:05.894Z,-2.06
2022-11-24T03:36:36.494Z,-2.03
2022-11-24T03:39:07.496Z,-2.08
2022-11-24T03:41:38.171Z,-2.09
2022-11-24T03:44:09.903Z,-2.13
2022-11-24T03:46:40.636Z,-2.12
2022-11-24T03:49:11.984Z,-2.12
2022-11-24T03:51:42.743Z,-2.11
2022-11-24T03:54:13.223Z,-2.09
2022-11-24T03:56:44.483Z,-2.08
2022-11-24T03:59:16.449Z,-2.14
2022-11-24T04:01:47.269Z,-2.15
2022-11-24T04:04:17.640Z,-2.07
2022-11-24T04:06:48.212Z,-2.12
2022-11-24T04:09:18.601Z,-2.15
2022-11-24T04:12:06.503Z,-2.21
2022-11-24T04:14:38.453Z,-2.21
2022-11-24T04:17:08.972Z,-2.16
2022-11-24T04:19:39.283Z,-2.17
2022-11-24T04:22:10.193Z,-2.11
2022-11-24T04:24:40.520Z,-2.16
2022-11-24T04:27:11.020Z,-2.22
2022-11-24T04:29:42.800Z,-2.13
2022-11-24T04:32:13.474Z,-2.13
2022-11-24T04:34:43.983Z,-2.19
2022-11-24T04:37:14.682Z,-2.13
2022-11-24T04:39:45.331Z,-2.16
2022-11-24T04:42:16.326Z,-2.16
2022-11-24T04:44:48.121Z,-2.15
2022-11-24T04:47:22.552Z,-2.20
2022-11-24T04:49:53.173Z,-2.15
2022-11-24T04:52:26.020Z,-2.16
2022-11-24T04:54:56.235Z,-2.12
2022-11-24T04:57:28.271Z,-2.13
2022-11-24T05:00:00.590Z,-2.12
2022-11-24T05:02:31.652Z,-2.10
2022-11-24T05:05:02.034Z,-2.14
2022-11-24T05:07:35.087Z,-2.14
2022-11-24T05:10:22.983Z,-2.17
2022-11-24T05:12:57.714Z,-2.19
2022-11-24T05:15:29.552Z,-2.16
2022-11-24T05:18:00.330Z,-2.12
2022-11-24T05:20:30.862Z,-2.11
2022-11-24T05:23:06.368Z,-2.07
2022-11-24T05:25:39.706Z,-2.06
2022-11-24T05:28:11.862Z,-2.13
2022-11-24T05:30:43.772Z,-2.07
2022-11-24T05:33:19.306Z,-2.11
2022-11-24T05:35:50.107Z,-2.12
2022-11-24T05:38:21.407Z,-2.15
2022-11-24T05:40:51.600Z,-2.12
2022-11-24T05:43:22.132Z,-2.10
2022-11-24T05:45:53.720Z,-2.08
2022-11-24T05:48:24.200Z,-2.11
2022-11-24T05:50:56.561Z,-2.13
2022-11-24T05:53:27.308Z,-2.15
2022-11-24T05:55:57.530Z,-2.10
2022-11-24T05:58:28.235Z,-2.08
2022-11-24T06:00:59.915Z,-2.10
2022-11-24T06:03:30.345Z,-2.09
2022-11-24T06:06:00.528Z,-2.10
2022-11-24T06:08:31.621Z,-2.03
2022-11-24T06:11:17.539Z,-2.02
2022-11-24T06:13:49.819Z,-2.03
2022-11-24T06:16:21.647Z,-1.99
2022-11-24T06:18:52.184Z,-2.04
2022-11-24T06:21:22.734Z,-2.07
2022-11-24T06:23:53.679Z,-2.08
2022-11-24T06:26:24.072Z,-2.08
2022-11-24T06:28:54.802Z,-2.05
2022-11-24T06:31:26.709Z,-2.32
2022-11-24T06:33:57.465Z,-2.06
2022-11-24T06:36:28.373Z,-2.08
2022-11-24T06:38:59.413Z,-2.08
2022-11-24T06:41:30.283Z,-2.11
2022-11-24T06:44:04.032Z,-2.13
2022-11-24T06:46:40.893Z,-2.15
2022-11-24T06:49:11.823Z,-2.07
2022-11-24T06:51:42.275Z,-2.17
2022-11-24T06:54:17.393Z,-2.14
2022-11-24T06:56:47.754Z,-2.14
2022-11-24T06:59:21.229Z,-2.15
2022-11-24T07:01:57.902Z,-2.13
2022-11-24T07:04:28.613Z,-2.10
2022-11-24T07:07:28.680Z,-2.13
2022-11-24T07:09:59.673Z,-2.16
2022-11-24T07:12:30.085Z,-2.14
2022-11-24T07:15:01.251Z,-2.16
2022-11-24T07:17:33.292Z,-2.14
2022-11-24T07:20:04.951Z,-2.14
2022-11-24T07:22:35.472Z,-2.13
2022-11-24T07:25:10.205Z,-2.12
2022-11-24T07:27:41.347Z,-2.06
2022-11-24T07:30:12.033Z,-2.12
2022-11-24T07:32:44.194Z,-2.14
2022-11-24T07:35:14.605Z,-2.18
2022-11-24T07:37:45.451Z,-2.16
2022-11-24T07:40:16.163Z,-2.14
2022-11-24T07:42:46.854Z,-2.14
2022-11-24T07:45:17.634Z,-2.12
2022-11-24T07:47:51.919Z,-2.20
2022-11-24T07:50:28.147Z,-2.13
2022-11-24T07:53:05.005Z,-2.03
2022-11-24T07:55:36.235Z,-2.02
2022-11-24T07:58:08.202Z,-1.98
2022-11-24T08:00:38.576Z,-1.93
2022-11-24T08:03:11.054Z,-1.96
2022-11-24T08:06:07.778Z,-1.98
2022-11-24T08:08:34.723Z,-1.98
2022-11-24T08:11:09.975Z,-2.01
2022-11-24T08:13:41.512Z,-2.08
2022-11-24T08:16:13.965Z,-2.04
2022-11-24T08:18:50.303Z,-1.99
2022-11-24T08:21:21.231Z,-2.04
2022-11-24T08:23:56.038Z,-2.01
2022-11-24T08:26:27.025Z,-2.03
2022-11-24T08:29:00.302Z,-1.99
2022-11-24T08:31:35.223Z,-1.92
2022-11-24T08:34:09.094Z,-1.97
2022-11-24T08:36:39.392Z,-1.93
2022-11-24T08:39:12.341Z,-1.96
2022-11-24T08:41:43.145Z,-1.93
2022-11-24T08:44:16.144Z,-1.96
2022-11-24T08:46:47.450Z,-1.90
2022-11-24T08:49:20.162Z,-1.88
2022-11-24T08:51:51.694Z,-1.91
2022-11-24T08:54:22.349Z,-1.91
2022-11-24T08:56:53.313Z,-1.89
2022-11-24T08:59:24.232Z,-1.79
2022-11-24T09:01:55.286Z,-1.83
2022-11-24T09:04:32.315Z,-1.91
2022-11-24T09:07:03.469Z,-1.83
2022-11-24T09:09:35.432Z,-1.82
2022-11-24T09:12:11.336Z,-1.82
2022-11-24T09:14:47.694Z,-1.79
2022-11-24T09:17:19.176Z,-1.73
2022-11-24T09:19:52.893Z,-1.74
2022-11-24T09:22:23.883Z,-1.73
2022-11-24T09:24:55.081Z,-1.81
2022-11-24T09:27:27.994Z,-2.03
2022-11-24T09:29:59.084Z,-1.79
2022-11-24T09:32:30.444Z,-1.81
2022-11-24T09:35:04.614Z,-1.76
2022-11-24T09:37:36.228Z,-1.75
2022-11-24T09:40:19.324Z,-1.67
2022-11-24T09:43:02.583Z,-1.65
2022-11-24T09:46:05.073Z,-1.66
2022-11-24T09:48:41.330Z,-1.75
2022-11-24T09:51:20.234Z,-1.76
2022-11-24T09:53:57.757Z,-1.72
2022-11-24T09:56:31.743Z,-1.70
2022-11-24T09:59:20.213Z,-1.68
2022-11-24T10:01:56.155Z,-1.66
2022-11-24T10:04:30.975Z,-1.63
2022-11-24T10:07:11.013Z,-1.62
2022-11-24T10:10:13.384Z,-1.67
2022-11-24T10:12:56.170Z,-1.67
2022-11-24T10:15:55.962Z,-1.67
2022-11-24T10:19:04.393Z,-1.66
2022-11-24T10:22:00.893Z,-1.67
2022-11-24T10:24:55.228Z,-1.65
2022-11-24T10:27:32.976Z,-1.61
2022-11-24T10:30:04.513Z,-1.60
2022-11-24T10:32:39.604Z,-1.63
2022-11-24T10:35:20.792Z,-1.60
2022-11-24T10:38:15.829Z,-1.60
2022-11-24T10:40:58.237Z,-1.68
2022-11-24T10:43:30.081Z,-1.69
2022-11-24T10:46:12.520Z,-1.65
2022-11-24T10:48:47.510Z,-1.73
2022-11-24T10:51:44.693Z,-1.73
2022-11-24T10:54:23.382Z,-1.68
2022-11-24T10:57:00.645Z,-1.71
2022-11-24T10:59:40.562Z,-1.71
2022-11-24T11:02:33.051Z,-1.64
2022-11-24T11:05:35.591Z,-1.66
2022-11-24T11:08:22.234Z,-1.63
2022-11-24T11:11:06.313Z,-1.64
2022-11-24T11:13:38.950Z,-1.59
2022-11-24T11:16:26.432Z,-1.52
2022-11-24T11:18:57.908Z,-1.62
2022-11-24T11:21:33.684Z,-1.53
2022-11-24T11:24:07.347Z,-1.42
2022-11-24T11:26:41.917Z,-1.48
2022-11-24T11:35:15.708Z,-1.44
2022-11-24T11:37:48.910Z,-1.47
2022-11-24T11:40:24.614Z,-1.43
2022-11-24T11:43:03.869Z,-1.46
2022-11-24T11:45:38.873Z,-1.44
2022-11-24T11:48:25.628Z,-1.46
2022-11-24T11:54:00.308Z,-1.48
2022-11-24T11:56:36.144Z,-1.49
2022-11-24T11:59:36.127Z,-1.51
2022-11-24T12:02:38.086Z,-1.50
2022-11-24T12:05:21.617Z,-1.48
2022-11-24T12:08:09.763Z,-1.48
2022-11-24T12:10:48.884Z,-1.38
2022-11-24T12:13:51.486Z,-1.33
2022-11-24T12:16:36.390Z,-1.42
2022-11-24T12:19:25.767Z,-1.51
2022-11-24T12:22:08.197Z,-1.51
2022-11-24T12:24:51.031Z,-1.55
2022-11-24T12:27:39.908Z,-1.52
2022-11-24T12:30:16.159Z,-1.45
2022-11-24T12:33:12.857Z,-1.51
2022-11-24T12:36:06.255Z,-1.45
2022-11-24T12:38:52.856Z,-1.51
2022-11-24T12:41:42.063Z,-1.47
2022-11-24T12:44:32.078Z,-1.51
2022-11-24T12:47:13.732Z,-1.48
2022-11-24T12:49:58.826Z,-1.51
2022-11-24T12:52:36.057Z,-1.52
2022-11-24T12:55:07.476Z,-1.51
2022-11-24T12:57:46.145Z,-1.53
2022-11-24T13:00:23.255Z,-1.63
2022-11-24T13:03:07.140Z,-1.66
2022-11-24T13:05:49.057Z,-1.63
2022-11-24T13:08:22.078Z,-1.67
2022-11-24T13:10:57.406Z,-1.66
2022-11-24T13:13:52.028Z,-1.63
2022-11-24T13:16:53.569Z,-1.59
2022-11-24T13:19:19.557Z,-1.66
2022-11-24T13:22:15.638Z,-1.73
2022-11-24T13:24:53.709Z,-1.73
2022-11-24T13:27:41.344Z,-1.73
2022-11-24T13:30:52.997Z,-1.77
2022-11-24T13:33:47.778Z,-1.73
2022-11-24T13:36:35.113Z,-1.75
2022-11-24T13:39:06.889Z,-1.73
2022-11-24T13:42:43.943Z,-1.70
2022-11-24T13:45:05.706Z,-1.70
2022-11-24T13:47:39.519Z,-1.68
2022-11-24T13:50:25.437Z,-1.70
2022-11-24T13:53:08.810Z,-1.72
2022-11-24T13:55:41.726Z,-1.75
2022-11-24T13:58:33.946Z,-1.76
2022-11-24T14:01:21.019Z,-1.70
2022-11-24T14:04:29.884Z,-1.70
2022-11-24T14:07:09.761Z,-1.73
2022-11-24T14:09:46.293Z,-1.77
2022-11-24T14:12:19.646Z,-1.74
2022-11-24T14:14:57.324Z,-1.76
2022-11-24T14:17:28.909Z,-1.70
2022-11-24T14:20:02.187Z,-1.70
2022-11-24T14:22:43.178Z,-1.63
2022-11-24T14:50:00.464Z,-1.64
2022-11-24T14:52:33.514Z,-1.66
2022-11-24T14:55:21.829Z,-1.65
2022-11-24T14:58:21.324Z,-1.64
2022-11-24T16:00:18.766Z,-1.54
2022-11-24T16:02:51.024Z,-1.57
2022-11-24T16:05:23.471Z,-1.57
2022-11-24T16:07:55.054Z,-1.54
2022-11-24T16:10:30.922Z,-1.58
2022-11-24T16:13:02.562Z,-1.59
2022-11-24T16:15:34.780Z,-1.57
2022-11-24T16:18:07.333Z,-1.58
2022-11-24T16:20:38.650Z,-1.65
2022-11-24T16:23:09.592Z,-1.68
2022-11-24T16:25:40.112Z,-1.72
2022-11-24T16:28:11.239Z,-1.74
2022-11-24T16:30:43.673Z,-1.74
2022-11-24T16:33:14.834Z,-1.80
2022-11-24T16:35:48.445Z,-1.85
2022-11-24T16:38:19.532Z,-1.85
2022-11-24T16:40:54.273Z,-1.84
2022-11-24T16:43:26.182Z,-1.82
2022-11-24T16:46:09.699Z,-1.79
2022-11-24T16:48:41.451Z,-1.74
2022-11-24T16:51:13.623Z,-1.75
2022-11-24T16:53:46.946Z,-1.77
2022-11-24T16:56:17.959Z,-1.77
2022-11-24T16:58:48.941Z,-1.75
2022-11-24T17:01:21.556Z,-1.77
2022-11-24T17:03:53.174Z,-1.81
2022-11-24T17:06:24.524Z,-1.83
2022-11-24T17:08:57.393Z,-1.80
2022-11-24T17:11:29.972Z,-1.83
2022-11-24T17:14:01.464Z,-1.79
2022-11-24T17:16:33.905Z,-1.76
2022-11-24T17:19:05.830Z,-1.76
2022-11-24T17:21:36.063Z,-1.79
2022-11-24T17:24:09.290Z,-1.74
2022-11-24T17:26:42.494Z,-1.73
2022-11-24T17:29:17.815Z,-1.74
2022-11-24T17:31:52.223Z,-1.72
2022-11-24T17:34:23.576Z,-1.71
2022-11-24T17:36:54.323Z,-1.72
2022-11-24T17:39:26.989Z,-1.73
2022-11-24T17:41:57.899Z,-1.68
2022-11-24T17:44:29.059Z,-1.66
2022-11-24T17:47:01.319Z,-1.68
2022-11-24T17:49:32.380Z,-1.74
2022-11-24T17:52:02.979Z,-1.76
2022-11-24T17:54:49.206Z,-1.77
2022-11-24T17:57:19.930Z,-1.81
2022-11-24T17:59:51.488Z,-1.84
2022-11-24T18:02:25.738Z,-1.85
2022-11-24T18:04:58.620Z,-1.85
2022-11-24T18:07:30.985Z,-1.87
2022-11-24T18:10:02.196Z,-1.86
2022-11-24T18:12:34.551Z,-1.82
2022-11-24T18:15:06.469Z,-1.79
2022-11-24T18:17:43.940Z,-1.80
2022-11-24T18:20:15.777Z,-1.84
2022-11-24T18:23:05.169Z,-1.87
2022-11-24T18:25:38.417Z,-1.84
2022-11-24T18:28:09.818Z,-1.89
2022-11-24T18:30:41.629Z,-1.82
2022-11-24T18:33:15.059Z,-1.86
2022-11-24T18:35:57.630Z,-1.87
2022-11-24T18:38:31.038Z,-1.88
2022-11-24T18:41:08.163Z,-1.81
2022-11-24T18:43:42.983Z,-1.82
2022-11-24T18:46:15.935Z,-1.85
2022-11-24T18:48:48.381Z,-1.86
2022-11-24T18:51:20.202Z,-1.88
2022-11-24T18:53:58.364Z,-1.86
2022-11-24T18:56:31.030Z,-1.91
2022-11-24T18:59:10.685Z,-1.94
2022-11-24T19:01:42.943Z,-1.94
2022-11-24T19:04:16.261Z,-1.93
2022-11-24T19:06:50.298Z,-1.88
2022-11-24T19:09:23.100Z,-1.85
2022-11-24T19:11:54.049Z,-1.93
2022-11-24T19:14:30.449Z,-1.90
2022-11-24T19:17:05.916Z,-1.87
2022-11-24T19:19:42.311Z,-1.84
2022-11-24T19:32:44.641Z,-1.88
2022-11-24T19:35:19.611Z,-1.83
2022-11-24T19:37:53.189Z,-1.87
2022-11-24T19:40:29.681Z,-1.85
2022-11-24T19:43:03.958Z,-1.81
2022-11-24T19:45:38.388Z,-1.80
2022-11-24T19:48:12.126Z,-1.85
2022-11-24T19:50:54.883Z,-1.89
2022-11-24T19:53:28.510Z,-1.85
2022-11-24T19:56:12.096Z,-1.82
2022-11-24T19:58:49.161Z,-1.80
2022-11-24T20:01:25.982Z,-1.79
2022-11-24T20:04:01.477Z,-1.76
2022-11-24T20:06:39.619Z,-1.74
2022-11-24T20:09:15.141Z,-1.77
2022-11-24T20:11:47.649Z,-1.76
2022-11-24T20:14:20.856Z,-1.75
2022-11-24T20:16:54.456Z,-1.74
2022-11-24T20:19:27.369Z,-1.75
2022-11-24T20:22:00.859Z,-1.76
2022-11-24T20:24:35.146Z,-1.74
2022-11-24T20:27:08.630Z,-1.71
2022-11-24T20:29:45.232Z,-1.70
2022-11-24T20:32:23.656Z,-1.70
2022-11-24T20:34:56.271Z,-1.71
2022-11-24T20:37:50.656Z,-1.66
2022-11-24T20:40:24.711Z,-1.64
2022-11-24T20:42:56.863Z,-1.65
2022-11-24T20:45:32.204Z,-1.62
2022-11-24T20:48:08.973Z,-1.64
2022-11-24T20:50:40.888Z,-1.61
2022-11-24T20:53:13.320Z,-1.59
2022-11-24T20:55:45.456Z,-1.60
2022-11-24T20:58:16.509Z,-1.56
2022-11-24T21:00:46.908Z,-1.55
2022-11-24T21:03:18.099Z,-1.54
2022-11-24T21:05:48.720Z,-1.53
2022-11-24T21:08:20.930Z,-1.50
2022-11-24T21:10:56.639Z,-1.49
2022-11-24T21:13:27.910Z,-1.48
2022-11-24T21:15:58.606Z,-1.50
2022-11-24T21:18:32.429Z,-1.47
2022-11-24T21:21:02.919Z,-1.52
2022-11-24T21:23:36.439Z,-1.50
2022-11-24T21:26:14.797Z,-1.47
2022-11-24T21:28:49.461Z,-1.50
2022-11-24T21:31:22.952Z,-1.46
2022-11-24T21:33:56.658Z,-1.55
2022-11-24T21:36:29.020Z,-1.51
2022-11-24T21:39:02.262Z,-1.50
2022-11-24T21:41:35.299Z,-1.51
2022-11-24T21:44:07.090Z,-1.47
2022-11-24T21:46:44.113Z,-1.44
2022-11-24T21:49:18.779Z,-1.44
2022-11-24T21:51:56.126Z,-1.44
2022-11-24T21:54:29.110Z,-1.42
2022-11-24T21:56:59.989Z,-1.39
2022-11-24T21:59:55.569Z,-1.44
2022-11-24T22:02:26.235Z,-1.40
2022-11-24T22:04:57.221Z,-1.38
2022-11-24T22:07:27.901Z,-1.36
2022-11-24T22:10:00.749Z,-1.37
2022-11-24T22:12:32.367Z,-1.36
2022-11-24T22:15:03.259Z,-1.34
2022-11-24T22:17:33.759Z,-1.30
2022-11-24T22:20:05.286Z,-1.31
2022-11-24T22:22:35.930Z,-1.31
2022-11-24T22:25:09.400Z,-1.28
2022-11-24T22:27:40.640Z,-1.25
2022-11-24T22:30:11.759Z,-1.25
2022-11-24T22:32:43.311Z,-1.24
2022-11-24T22:35:16.609Z,-1.23
2022-11-24T22:37:47.770Z,-1.23
2022-11-24T22:40:20.890Z,-1.18
2022-11-24T22:42:53.480Z,-1.17
2022-11-24T22:45:26.743Z,-1.15
2022-11-24T22:47:57.471Z,-1.12
2022-11-24T22:50:28.409Z,-1.15
2022-11-24T22:52:59.026Z,-1.16
2022-11-24T22:55:31.460Z,-1.15
2022-11-24T22:58:02.060Z,-1.14
2022-11-24T23:00:33.059Z,-1.10
2022-11-24T23:03:04.629Z,-1.07
2022-11-24T23:05:35.907Z,-1.09
2022-11-24T23:08:06.987Z,-1.09
2022-11-24T23:10:39.347Z,-1.04
2022-11-24T23:13:09.829Z,-1.02
2022-11-24T23:15:40.690Z,-1.02
2022-11-24T23:18:11.071Z,-1.03
2022-11-24T23:20:41.838Z,-1.09
2022-11-24T23:23:12.278Z,-1.05
2022-11-24T23:25:44.437Z,-1.05
2022-11-24T23:28:14.990Z,-1.07
2022-11-24T23:30:45.817Z,-1.07
2022-11-24T23:33:16.617Z,-1.05
2022-11-24T23:35:47.305Z,-1.06
2022-11-24T23:38:17.580Z,-1.06
2022-11-24T23:40:49.819Z,-1.00
2022-11-24T23:43:20.109Z,-0.99
2022-11-24T23:45:50.816Z,-0.98
2022-11-24T23:48:21.419Z,-0.99
2022-11-24T23:50:52.189Z,-0.98
2022-11-24T23:53:22.610Z,-0.96
2022-11-24T23:55:58.381Z,-0.95
2022-11-24T23:58:29.369Z,-0.97
